createdAt,value
2023-04-04T00:02:11.803Z,100512.34
2023-04-04T00:04:38.663Z,100507.54
2023-04-04T00:07:05.792Z,100509.01
2023-04-04T00:09:32.543Z,100507.79
2023-04-04T00:12:00.297Z,100508.52
2023-04-04T00:14:27.652Z,100508.77
2023-04-04T00:16:54.365Z,100506.77
2023-04-04T00:19:22.162Z,100510.48
2023-04-04T00:21:49.921Z,100516.48
2023-04-04T00:24:16.870Z,100515.83
2023-04-04T00:26:43.566Z,100516.35
2023-04-04T00:29:11.813Z,100519.95
2023-04-04T00:31:40.816Z,100523.27
2023-04-04T00:34:08.553Z,100526.16
2023-04-04T00:36:35.663Z,100528.20
2023-04-04T00:39:02.413Z,100528.52
2023-04-04T00:41:29.431Z,100526.42
2023-04-04T00:43:57.418Z,100523.94
2023-04-04T00:46:26.241Z,100519.08
2023-04-04T00:48:53.853Z,100512.31
2023-04-04T00:51:20.952Z,100508.92
2023-04-04T00:53:48.523Z,100507.34
2023-04-04T00:56:15.313Z,100507.64
2023-04-04T00:58:44.154Z,100505.20
2023-04-04T01:01:11.244Z,100502.25
2023-04-04T01:03:48.072Z,100502.13
2023-04-04T01:06:15.297Z,100500.15
2023-04-04T01:08:42.164Z,100502.80
2023-04-04T01:11:10.134Z,100503.94
2023-04-04T01:13:37.185Z,100502.13
2023-04-04T01:16:08.782Z,100505.48
2023-04-04T01:18:36.294Z,100511.95
2023-04-04T01:21:07.205Z,100507.65
2023-04-04T01:23:43.294Z,100513.46
2023-04-04T01:26:11.567Z,100513.35
2023-04-04T01:28:39.453Z,100516.46
2023-04-04T01:31:11.550Z,100517.77
2023-04-04T01:33:46.031Z,100522.17
2023-04-04T01:36:31.299Z,100525.05
2023-04-04T01:38:59.492Z,100530.55
2023-04-04T01:41:27.413Z,100535.25
2023-04-04T01:43:57.293Z,100539.62
2023-04-04T01:46:24.779Z,100539.93
2023-04-04T01:48:53.606Z,100544.37
2023-04-04T01:51:24.147Z,100541.92
2023-04-04T01:53:52.456Z,100539.19
2023-04-04T01:56:19.561Z,100537.14
2023-04-04T01:58:46.757Z,100537.54
2023-04-04T02:01:13.615Z,100534.54
2023-04-04T02:03:41.892Z,100531.00
2023-04-04T02:06:09.287Z,100533.02
2023-04-04T02:08:38.854Z,100528.94
2023-04-04T02:11:06.381Z,100529.17
2023-04-04T02:13:35.043Z,100530.21
2023-04-04T02:16:06.663Z,100530.34
2023-04-04T02:18:35.588Z,100526.64
2023-04-04T02:21:04.736Z,100524.61
2023-04-04T02:23:32.351Z,100518.10
2023-04-04T02:25:59.190Z,100514.66
2023-04-04T02:28:31.560Z,100507.98
2023-04-04T02:31:02.341Z,100501.04
2023-04-04T02:33:31.291Z,100496.45
2023-04-04T02:36:02.424Z,100491.56
2023-04-04T02:38:30.203Z,100484.69
2023-04-04T02:40:57.268Z,100485.70
2023-04-04T02:43:24.908Z,100482.14
2023-04-04T02:45:52.365Z,100478.08
2023-04-04T02:48:26.992Z,100482.62
2023-04-04T03:02:44.273Z,100506.55
2023-04-04T03:05:13.397Z,100518.84
2023-04-04T03:07:42.206Z,100518.05
2023-04-04T03:10:11.398Z,100520.73
2023-04-04T03:12:39.660Z,100522.61
2023-04-04T03:15:11.829Z,100530.63
2023-04-04T03:17:41.895Z,100530.56
2023-04-04T03:20:12.033Z,100530.11
2023-04-04T03:22:40.698Z,100531.39
2023-04-04T03:25:09.747Z,100530.52
2023-04-04T03:27:40.103Z,100532.98
2023-04-04T03:30:09.352Z,100536.94
2023-04-04T03:32:41.885Z,100541.66
2023-04-04T03:35:10.439Z,100544.20
2023-04-04T03:37:40.600Z,100541.23
2023-04-04T03:40:09.800Z,100538.36
2023-04-04T03:42:38.043Z,100539.92
2023-04-04T03:45:10.192Z,100539.85
2023-04-04T03:47:38.903Z,100534.59
2023-04-04T03:50:11.567Z,100533.39
2023-04-04T03:52:43.624Z,100533.46
2023-04-04T03:55:11.720Z,100540.05
2023-04-04T03:57:39.977Z,100541.96
2023-04-04T04:00:12.342Z,100546.52
2023-04-04T04:02:44.204Z,100556.38
2023-04-04T04:05:13.606Z,100562.02
2023-04-04T04:07:44.476Z,100559.94
2023-04-04T04:10:18.620Z,100559.98
2023-04-04T04:12:50.111Z,100557.27
2023-04-04T04:15:18.259Z,100556.49
2023-04-04T04:17:49.190Z,100559.45
2023-04-04T04:20:17.584Z,100560.77
2023-04-04T04:22:50.936Z,100568.03
2023-04-04T04:25:20.033Z,100571.64
2023-04-04T04:27:57.899Z,100574.13
2023-04-04T04:30:26.989Z,100570.54
2023-04-04T04:32:57.281Z,100566.36
2023-04-04T04:35:29.261Z,100567.48
2023-04-04T04:38:01.654Z,100571.77
2023-04-04T04:40:30.545Z,100569.11
2023-04-04T04:43:12.178Z,100566.93
2023-04-04T04:45:42.495Z,100567.73
2023-04-04T04:48:11.112Z,100566.13
2023-04-04T04:50:47.231Z,100565.71
2023-04-04T04:53:17.385Z,100567.29
2023-04-04T04:55:52.569Z,100566.03
2023-04-04T04:58:24.689Z,100569.85
2023-04-04T05:00:57.444Z,100570.95
2023-04-04T05:03:28.018Z,100570.27
2023-04-04T05:05:56.573Z,100572.32
2023-04-04T05:08:24.885Z,100567.90
2023-04-04T05:11:04.834Z,100567.51
2023-04-04T05:13:36.153Z,100574.92
2023-04-04T05:16:05.032Z,100569.84
2023-04-04T05:18:34.288Z,100564.28
2023-04-04T05:21:03.091Z,100561.01
2023-04-04T05:23:31.885Z,100559.68
2023-04-04T05:25:59.949Z,100561.10
2023-04-04T05:28:31.190Z,100564.84
2023-04-04T05:31:02.349Z,100565.96
2023-04-04T05:33:33.805Z,100569.23
2023-04-04T05:36:16.368Z,100573.86
2023-04-04T05:38:59.373Z,100585.86
2023-04-04T05:41:32.282Z,100601.55
2023-04-04T05:44:04.068Z,100607.39
2023-04-04T05:46:33.657Z,100610.23
2023-04-04T05:49:02.665Z,100615.33
2023-04-04T05:51:38.112Z,100622.52
2023-04-04T05:54:14.088Z,100628.26
2023-04-04T05:56:44.712Z,100623.59
2023-04-04T05:59:28.973Z,100623.83
2023-04-04T06:02:02.040Z,100617.83
2023-04-04T06:04:30.985Z,100617.61
2023-04-04T06:07:02.693Z,100616.15
2023-04-04T06:09:31.790Z,100619.05
2023-04-04T06:12:00.577Z,100621.84
2023-04-04T06:14:29.365Z,100622.11
2023-04-04T06:16:58.877Z,100616.14
2023-04-04T06:19:27.251Z,100620.72
2023-04-04T06:21:55.731Z,100619.17
2023-04-04T06:24:25.131Z,100621.55
2023-04-04T06:26:59.144Z,100618.83
2023-04-04T06:29:28.853Z,100617.66
2023-04-04T06:32:01.230Z,100616.45
2023-04-04T06:34:39.773Z,100615.50
2023-04-04T06:37:08.855Z,100617.35
2023-04-04T06:39:49.301Z,100613.34
2023-04-04T06:42:24.233Z,100605.65
2023-04-04T06:44:53.636Z,100603.81
2023-04-04T06:47:22.820Z,100607.59
2023-04-04T06:49:51.628Z,100607.48
2023-04-04T06:52:20.002Z,100603.31
2023-04-04T06:54:48.584Z,100607.69
2023-04-04T06:57:19.120Z,100610.73
2023-04-04T06:59:48.317Z,100610.58
2023-04-04T07:02:17.152Z,100610.87
2023-04-04T07:04:45.687Z,100610.86
2023-04-04T07:07:14.270Z,100612.05
2023-04-04T07:09:43.719Z,100614.67
2023-04-04T07:12:11.844Z,100618.88
2023-04-04T07:14:40.645Z,100616.38
2023-04-04T07:17:21.452Z,100621.59
2023-04-04T07:19:52.627Z,100622.48
2023-04-04T07:22:20.834Z,100625.45
2023-04-04T07:24:50.483Z,100625.13
2023-04-04T07:27:19.121Z,100628.16
2023-04-04T07:29:47.713Z,100631.64
2023-04-04T07:32:16.191Z,100626.05
2023-04-04T07:34:47.138Z,100627.98
2023-04-04T07:37:16.013Z,100628.52
2023-04-04T07:39:44.978Z,100628.67
2023-04-04T07:42:13.884Z,100631.35
2023-04-04T07:44:49.929Z,100634.80
2023-04-04T07:47:18.648Z,100635.67
2023-04-04T07:49:46.922Z,100639.16
2023-04-04T07:52:15.136Z,100633.22
2023-04-04T07:54:43.331Z,100629.83
2023-04-04T07:57:13.395Z,100627.06
2023-04-04T07:59:42.692Z,100636.23
2023-04-04T08:02:15.311Z,100640.29
2023-04-04T08:04:43.807Z,100639.48
2023-04-04T08:07:12.026Z,100638.39
2023-04-04T08:09:40.410Z,100641.02
2023-04-04T08:12:09.916Z,100641.66
2023-04-04T08:14:38.297Z,100642.20
2023-04-04T08:17:08.924Z,100639.43
2023-04-04T08:19:37.443Z,100638.11
2023-04-04T08:22:05.683Z,100637.52
2023-04-04T08:24:35.116Z,100639.70
2023-04-04T08:27:05.871Z,100642.33
2023-04-04T08:29:34.772Z,100643.55
2023-04-04T08:32:03.192Z,100640.83
2023-04-04T08:34:32.292Z,100639.89
2023-04-04T08:37:00.439Z,100639.86
2023-04-04T08:39:29.043Z,100642.39
2023-04-04T08:42:05.753Z,100639.13
2023-04-04T08:44:37.480Z,100639.80
2023-04-04T08:47:06.259Z,100645.59
2023-04-04T08:49:41.505Z,100649.48
2023-04-04T08:52:11.654Z,100647.73
2023-04-04T08:54:41.150Z,100647.86
2023-04-04T08:57:10.038Z,100650.01
2023-04-04T08:59:38.230Z,100650.30
2023-04-04T09:02:08.763Z,100650.76
2023-04-04T09:04:38.342Z,100653.65
2023-04-04T09:07:07.043Z,100656.96
2023-04-04T09:09:37.379Z,100657.05
2023-04-04T09:12:05.937Z,100654.67
2023-04-04T09:14:34.113Z,100656.35
2023-04-04T09:17:02.363Z,100660.50
2023-04-04T09:19:31.493Z,100661.63
2023-04-04T09:21:59.766Z,100659.29
2023-04-04T09:24:46.143Z,100656.58
2023-04-04T09:27:14.314Z,100654.27
2023-04-04T09:29:42.726Z,100652.20
2023-04-04T09:32:16.582Z,100654.34
2023-04-04T09:34:45.761Z,100652.91
2023-04-04T09:37:15.744Z,100656.06
2023-04-04T09:39:44.855Z,100660.42
2023-04-04T09:42:13.837Z,100662.13
2023-04-04T09:44:42.396Z,100661.13
2023-04-04T09:50:01.885Z,100656.48
2023-04-04T09:52:33.270Z,100657.53
2023-04-04T09:55:03.580Z,100653.67
2023-04-04T09:57:36.008Z,100652.50
2023-04-04T10:00:08.687Z,100654.46
2023-04-04T10:02:50.976Z,100652.64
2023-04-04T10:05:19.822Z,100653.28
2023-04-04T10:07:48.411Z,100653.95
2023-04-04T10:10:18.086Z,100658.83
2023-04-04T10:12:47.789Z,100657.81
2023-04-04T10:15:17.787Z,100653.41
2023-04-04T10:17:47.338Z,100650.60
2023-04-04T10:20:15.834Z,100651.24
2023-04-04T10:22:48.411Z,100644.67
2023-04-04T10:25:17.607Z,100640.44
2023-04-04T10:27:46.399Z,100638.30
2023-04-04T10:30:15.055Z,100638.06
2023-04-04T10:32:49.061Z,100639.43
2023-04-04T10:35:17.422Z,100643.80
2023-04-04T10:37:54.617Z,100641.73
2023-04-04T10:40:22.950Z,100647.05
2023-04-04T10:42:52.236Z,100646.46
2023-04-04T10:45:21.935Z,100651.01
2023-04-04T10:47:50.666Z,100660.73
2023-04-04T10:50:21.165Z,100662.77
2023-04-04T10:52:49.588Z,100659.04
2023-04-04T10:55:19.354Z,100656.20
2023-04-04T10:57:51.952Z,100653.88
2023-04-04T11:00:26.556Z,100652.72
2023-04-04T11:03:02.180Z,100658.27
2023-04-04T11:05:47.598Z,100656.13
2023-04-04T11:08:17.704Z,100652.70
2023-04-04T11:10:48.344Z,100655.44
2023-04-04T11:13:25.113Z,100654.45
2023-04-04T11:16:15.791Z,100654.10
2023-04-04T11:18:50.164Z,100649.31
2023-04-04T11:21:20.494Z,100654.54
2023-04-04T11:23:52.194Z,100658.48
2023-04-04T11:26:26.673Z,100656.77
2023-04-04T11:28:59.442Z,100655.65
2023-04-04T11:31:43.295Z,100657.66
2023-04-04T11:34:12.873Z,100655.30
2023-04-04T11:36:42.691Z,100652.56
2023-04-04T11:39:34.490Z,100648.30
2023-04-04T11:42:10.540Z,100645.13
2023-04-04T11:44:41.633Z,100645.89
2023-04-04T11:47:10.868Z,100647.70
2023-04-04T11:49:41.285Z,100648.94
2023-04-04T11:52:11.373Z,100646.89
2023-04-04T11:54:40.043Z,100652.23
2023-04-04T11:57:13.331Z,100650.85
2023-04-04T11:59:42.602Z,100651.14
2023-04-04T12:02:10.838Z,100656.06
2023-04-04T12:04:43.437Z,100656.48
2023-04-04T12:07:23.238Z,100652.27
2023-04-04T12:09:52.334Z,100646.95
2023-04-04T12:12:21.182Z,100644.80
2023-04-04T12:14:50.375Z,100648.17
2023-04-04T12:17:19.928Z,100641.00
2023-04-04T12:19:48.274Z,100636.65
2023-04-04T12:22:16.639Z,100630.47
2023-04-04T12:24:45.078Z,100634.14
2023-04-04T12:27:13.566Z,100631.74
2023-04-04T12:29:43.268Z,100630.45
2023-04-04T12:32:12.669Z,100625.98
2023-04-04T12:34:48.632Z,100624.04
2023-04-04T12:37:21.095Z,100622.05
2023-04-04T12:39:49.991Z,100620.13
2023-04-04T12:42:23.945Z,100614.30
2023-04-04T12:44:53.997Z,100612.68
2023-04-04T12:47:26.570Z,100612.48
2023-04-04T12:49:56.014Z,100615.23
2023-04-04T12:52:33.744Z,100613.84
2023-04-04T12:55:10.120Z,100612.45
2023-04-04T12:57:39.642Z,100617.42
2023-04-04T13:02:59.065Z,100610.39
2023-04-04T13:05:31.340Z,100609.29
2023-04-04T13:08:10.161Z,100605.63
2023-04-04T13:10:58.394Z,100602.95
2023-04-04T13:13:40.868Z,100599.86
2023-04-04T13:16:14.747Z,100599.95
2023-04-04T13:18:44.369Z,100596.71
2023-04-04T13:21:13.482Z,100592.13
2023-04-04T13:23:41.715Z,100589.17
2023-04-04T13:26:10.484Z,100587.33
2023-04-04T13:28:39.271Z,100590.50
2023-04-04T13:31:08.579Z,100592.29
2023-04-04T13:33:37.170Z,100593.95
2023-04-04T13:36:06.153Z,100591.61
2023-04-04T13:38:37.191Z,100586.88
2023-04-04T13:41:05.716Z,100583.04
2023-04-04T13:43:35.590Z,100580.41
2023-04-04T13:46:04.931Z,100582.20
2023-04-04T13:48:33.674Z,100582.77
2023-04-04T13:51:02.671Z,100582.34
2023-04-04T13:53:31.364Z,100582.63
2023-04-04T13:58:38.635Z,100584.20
2023-04-04T14:01:07.088Z,100582.16
2023-04-04T14:03:37.203Z,100583.23
2023-04-04T14:06:10.463Z,100583.28
2023-04-04T14:08:40.101Z,100586.83
2023-04-04T14:11:10.832Z,100585.23
2023-04-04T14:13:40.178Z,100584.80
2023-04-04T14:16:08.950Z,100588.29
2023-04-04T14:18:37.164Z,100585.36
2023-04-04T14:21:05.749Z,100583.14
2023-04-04T14:23:34.006Z,100579.52
2023-04-04T14:26:02.152Z,100582.76
2023-04-04T14:28:32.071Z,100582.36
2023-04-04T14:31:00.599Z,100583.54
2023-04-04T14:33:30.098Z,100582.30
2023-04-04T14:35:58.398Z,100580.14
2023-04-04T14:38:26.756Z,100578.00
2023-04-04T14:40:55.244Z,100579.89
2023-04-04T14:43:24.767Z,100575.52
2023-04-04T14:45:54.349Z,100571.73
2023-04-04T14:48:24.066Z,100571.92
2023-04-04T14:50:52.315Z,100569.66
2023-04-04T14:53:21.586Z,100567.56
2023-04-04T14:55:49.937Z,100566.92
2023-04-04T14:58:19.120Z,100569.17
2023-04-04T15:00:48.364Z,100566.71
2023-04-04T15:03:17.507Z,100567.01
2023-04-04T15:05:46.098Z,100567.61
2023-04-04T15:20:50.417Z,100564.63
2023-04-04T15:23:19.468Z,100564.15
2023-04-04T15:25:47.770Z,100564.89
2023-04-04T15:28:19.834Z,100567.01
2023-04-04T15:30:48.267Z,100565.74
2023-04-04T15:33:16.562Z,100567.55
2023-04-04T15:35:44.773Z,100566.33
2023-04-04T15:38:13.044Z,100565.64
2023-04-04T15:40:42.563Z,100566.99
2023-04-04T15:43:11.145Z,100563.85
2023-04-04T15:45:39.631Z,100562.60
2023-04-04T15:48:08.034Z,100560.38
2023-04-04T15:50:36.784Z,100558.95
2023-04-04T15:53:05.675Z,100558.08
2023-04-04T15:55:36.616Z,100554.02
2023-04-04T15:58:04.805Z,100552.70
2023-04-04T16:00:33.995Z,100553.21
2023-04-04T16:03:14.603Z,100547.93
2023-04-04T16:05:43.743Z,100542.97
2023-04-04T16:08:15.619Z,100540.77
2023-04-04T16:10:44.859Z,100537.57
2023-04-04T16:13:13.597Z,100536.00
2023-04-04T16:15:45.533Z,100528.58
2023-04-04T16:18:15.799Z,100526.31
2023-04-04T16:20:44.686Z,100521.29
2023-04-04T16:23:18.320Z,100519.83
2023-04-04T16:25:47.378Z,100518.05
2023-04-04T16:28:16.054Z,100516.08
2023-04-04T16:30:52.881Z,100511.99
2023-04-04T16:33:21.830Z,100512.70
2023-04-04T16:35:50.163Z,100513.45
2023-04-04T16:38:18.946Z,100512.90
2023-04-04T16:40:47.681Z,100511.33
2023-04-04T16:43:16.061Z,100510.02
2023-04-04T16:45:50.393Z,100508.77
2023-04-04T16:48:19.425Z,100505.27
2023-04-04T16:50:48.901Z,100500.91
2023-04-04T16:53:18.487Z,100497.73
2023-04-04T16:55:46.768Z,100494.45
2023-04-04T16:58:15.347Z,100494.00
2023-04-04T17:00:44.110Z,100485.80
2023-04-04T17:03:15.692Z,100483.17
2023-04-04T17:05:44.788Z,100481.83
2023-04-04T17:08:13.062Z,100483.13
2023-04-04T17:10:42.322Z,100483.22
2023-04-04T17:13:10.637Z,100485.80
2023-04-04T17:15:39.431Z,100486.94
2023-04-04T17:18:08.699Z,100489.10
2023-04-04T17:20:38.394Z,100493.13
2023-04-04T17:23:07.333Z,100494.44
2023-04-04T17:25:36.222Z,100500.35
2023-04-04T17:28:04.962Z,100503.34
2023-04-04T17:30:33.287Z,100505.73
2023-04-04T17:33:04.462Z,100508.14
2023-04-04T17:35:32.807Z,100513.45
2023-04-04T17:38:08.150Z,100521.23
2023-04-04T17:40:37.138Z,100524.09
2023-04-04T17:43:06.101Z,100522.14
2023-04-04T17:45:35.042Z,100519.50
2023-04-04T17:48:04.090Z,100514.34
2023-04-04T17:50:33.854Z,100515.02
2023-04-04T17:53:03.039Z,100516.81
2023-04-04T17:55:32.158Z,100513.07
2023-04-04T17:58:00.524Z,100504.52
2023-04-04T18:00:29.830Z,100500.31
2023-04-04T18:02:58.943Z,100493.73
2023-04-04T18:05:28.030Z,100493.50
2023-04-04T18:07:58.349Z,100492.86
2023-04-04T18:10:27.328Z,100496.53
2023-04-04T18:12:59.287Z,100500.73
2023-04-04T18:15:27.545Z,100504.38
2023-04-04T18:17:56.529Z,100505.94
2023-04-04T18:20:34.651Z,100510.39
2023-04-04T18:23:06.855Z,100511.67
2023-04-04T18:25:36.341Z,100514.61
2023-04-04T18:28:06.351Z,100517.61
2023-04-04T18:30:37.106Z,100521.45
2023-04-04T18:33:07.465Z,100528.57
2023-04-04T18:35:38.287Z,100533.90
2023-04-04T18:38:07.278Z,100535.66
2023-04-04T18:40:37.158Z,100535.70
2023-04-04T18:43:05.756Z,100538.52
2023-04-04T18:45:40.297Z,100542.12
2023-04-04T18:48:09.896Z,100541.72
2023-04-04T18:50:38.460Z,100537.74
2023-04-04T18:53:08.000Z,100530.64
2023-04-04T18:55:38.704Z,100522.67
2023-04-04T18:58:07.128Z,100511.92
2023-04-04T19:00:35.612Z,100501.96
2023-04-04T19:03:07.643Z,100490.66
2023-04-04T19:05:37.198Z,100474.44
2023-04-04T19:08:08.470Z,100468.02
2023-04-04T19:10:36.698Z,100461.27
2023-04-04T19:13:06.982Z,100453.41
2023-04-04T19:15:35.268Z,100447.86
2023-04-04T19:18:06.704Z,100435.34
2023-04-04T19:20:35.722Z,100435.95
2023-04-04T19:23:04.901Z,100441.12
2023-04-04T19:25:33.693Z,100450.25
2023-04-04T19:28:02.888Z,100457.05
2023-04-04T19:30:41.951Z,100466.33
2023-04-04T19:33:17.992Z,100469.58
2023-04-04T19:35:57.384Z,100470.21
2023-04-04T19:38:28.351Z,100477.03
2023-04-04T19:41:00.991Z,100487.39
2023-04-04T19:43:30.151Z,100488.92
2023-04-04T19:46:00.429Z,100491.69
2023-04-04T19:48:41.153Z,100495.60
2023-04-04T19:51:18.130Z,100505.75
2023-04-04T19:53:50.881Z,100511.68
2023-04-04T19:56:21.825Z,100510.88
2023-04-04T19:59:06.182Z,100509.70
2023-04-04T20:01:39.004Z,100508.55
2023-04-04T20:04:09.820Z,100506.60
2023-04-04T20:06:39.008Z,100505.39
2023-04-04T20:09:13.126Z,100500.26
2023-04-04T20:11:41.491Z,100500.71
2023-04-04T20:14:10.730Z,100495.44
2023-04-04T20:16:39.043Z,100494.35
2023-04-04T20:19:09.999Z,100492.64
2023-04-04T20:21:38.992Z,100495.30
2023-04-04T20:24:11.202Z,100492.33
2023-04-04T20:26:58.340Z,100489.13
2023-04-04T20:29:33.722Z,100488.19
2023-04-04T20:32:03.612Z,100488.77
2023-04-04T20:34:46.465Z,100493.45
2023-04-04T20:37:26.284Z,100490.77
2023-04-04T20:40:03.236Z,100490.49
2023-04-04T20:42:41.722Z,100488.21
2023-04-04T20:45:10.436Z,100478.96
2023-04-04T20:47:55.307Z,100471.11
2023-04-04T20:50:23.603Z,100464.04
2023-04-04T20:52:59.026Z,100464.95
2023-04-04T20:55:31.816Z,100464.14
2023-04-04T20:58:07.097Z,100467.35
2023-04-04T21:00:42.492Z,100467.68
2023-04-04T21:03:32.940Z,100463.52
2023-04-04T21:06:13.283Z,100461.98
2023-04-04T21:08:46.393Z,100459.17
2023-04-04T21:11:23.584Z,100457.05
2023-04-04T21:13:51.899Z,100460.20
2023-04-04T21:16:20.586Z,100458.08
2023-04-04T21:18:50.119Z,100456.45
2023-04-04T21:21:21.509Z,100449.62
2023-04-04T21:24:00.755Z,100448.38
2023-04-04T21:26:34.334Z,100448.92
2023-04-04T21:29:07.028Z,100442.63
2023-04-04T21:31:40.782Z,100438.27
2023-04-04T21:34:17.182Z,100432.67
2023-04-04T21:36:46.081Z,100429.21
2023-04-04T21:39:25.739Z,100426.50
2023-04-04T21:42:08.553Z,100422.94
2023-04-04T21:44:38.667Z,100415.54
2023-04-04T21:47:07.146Z,100413.17
2023-04-04T21:49:35.415Z,100413.14
2023-04-04T21:52:06.352Z,100417.62
2023-04-04T21:54:35.144Z,100416.31
2023-04-04T21:57:03.203Z,100419.75
2023-04-04T21:59:32.725Z,100413.63
2023-04-04T22:02:02.213Z,100413.50
2023-04-04T22:04:31.048Z,100409.72
2023-04-04T22:06:59.421Z,100409.04
2023-04-04T22:09:29.870Z,100414.69
2023-04-04T22:12:03.039Z,100404.21
2023-04-04T22:14:32.114Z,100395.52
2023-04-04T22:17:05.540Z,100395.08
2023-04-04T22:19:43.695Z,100397.59
2023-04-04T22:22:12.017Z,100410.85
2023-04-04T22:24:40.985Z,100419.23
2023-04-04T22:27:09.477Z,100402.87
2023-04-04T22:29:43.676Z,100394.25
2023-04-04T22:32:12.618Z,100393.01
2023-04-04T22:34:41.378Z,100392.98
2023-04-04T22:37:09.660Z,100396.54
2023-04-04T22:39:37.893Z,100398.05
2023-04-04T22:42:06.094Z,100403.70
2023-04-04T22:44:35.093Z,100400.35
2023-04-04T22:47:06.231Z,100397.98
2023-04-04T22:49:37.948Z,100393.78
2023-04-04T22:52:11.199Z,100402.44
2023-04-04T22:54:40.045Z,100405.42
2023-04-04T22:57:08.862Z,100395.92
2023-04-04T22:59:42.169Z,100376.61
2023-04-04T23:02:10.767Z,100373.21
2023-04-04T23:04:39.734Z,100378.15
2023-04-04T23:07:08.255Z,100378.59
2023-04-04T23:09:40.280Z,100369.68
2023-04-04T23:12:08.483Z,100369.64
2023-04-04T23:14:39.910Z,100371.33
2023-04-04T23:17:08.467Z,100366.50
2023-04-04T23:19:36.890Z,100374.13
2023-04-04T23:22:07.764Z,100373.85
2023-04-04T23:24:37.953Z,100368.86
2023-04-04T23:27:06.615Z,100371.58
2023-04-04T23:29:35.711Z,100376.02
2023-04-04T23:32:04.304Z,100376.28
2023-04-04T23:34:33.596Z,100366.65
2023-04-04T23:37:02.283Z,100364.32
2023-04-04T23:39:36.906Z,100359.48
2023-04-04T23:42:05.593Z,100352.40
2023-04-04T23:44:33.761Z,100351.73
2023-04-04T23:47:02.019Z,100353.06
2023-04-04T23:49:30.530Z,100359.94
2023-04-04T23:51:58.908Z,100370.65
2023-04-04T23:54:28.104Z,100378.45
2023-04-04T23:56:56.792Z,100370.20
2023-04-04T23:59:26.077Z,100367.61
